»·PEaware :: N75AB KCNO-KVCV

N75AB :: KCNO-KVCV

FLIGHT INFORMATION

Flight Status: Arrived
Operator: Privately registered:
United States
More flights under this callsign
Pilot: Al B. (22517)
Aircraft: PIPER PA-28 CHEROKEE ARCHER
(P28A)
More flights by this aircraft type
Origin: KCNO Chino
United States
Destination: KVCV Socal Logistics
United States
More flights between these airports :: More routes between these airports
Route: +
File this flight plan on PilotEdge
Remarks:
Altitude:
(Current/Filed)
0ft
Speed:
(Current/Filed)
0kts
Departed: 21-Nov-20 08:24 PM
Arrived: 21-Nov-20 08:57 PM
Distance/Time
Traveled:
39nm/0:33
Distance/Time
To Go:
Arrived

Flight Plot

Page will automatically refresh every two minutes.

Flight plan parsing failed; only flown route is shown


Map Options




Map Legend


Flown Route
Filed Route
Departure Airport
Arrival Airport
Navaid (VOR, NDB)
Fix

Horizontal Profiles

Position Reports

Time Latitude Longitude Heading Altitude Ground
Speed
21-Nov-20 20:14 33.977495 -117.638277 359 635ft 0kts
21-Nov-20 20:15 33.977577 -117.638971 225 635ft 9kts
21-Nov-20 20:16 33.976900 -117.636336 89 637ft 16kts
21-Nov-20 20:17 33.976791 -117.630636 262 642ft 0kts
21-Nov-20 20:18 33.976790 -117.630645 262 642ft 0kts
21-Nov-20 20:19 33.976790 -117.630645 262 642ft 0kts
21-Nov-20 20:20 33.976790 -117.630645 262 642ft 0kts
21-Nov-20 20:21 33.976789 -117.630649 262 642ft 0kts
21-Nov-20 20:22 33.975932 -117.631290 241 638ft 10kts
21-Nov-20 20:23 33.975964 -117.648527 268 1011ft 81kts
21-Nov-20 20:24 33.964959 -117.650288 95 1769ft 84kts
21-Nov-20 20:25 33.964443 -117.623139 85 2552ft 78kts
21-Nov-20 20:26 33.965555 -117.598060 79 3243ft 84kts
21-Nov-20 20:27 33.972193 -117.572050 54 3944ft 78kts
21-Nov-20 20:28 33.985172 -117.550908 46 4605ft 79kts
21-Nov-20 20:29 34.000404 -117.532048 36 5226ft 81kts
21-Nov-20 20:30 34.019300 -117.518455 17 5847ft 79kts
21-Nov-20 20:31 34.039716 -117.508257 15 6467ft 80kts
21-Nov-20 20:32 34.060403 -117.496049 24 6977ft 87kts
21-Nov-20 20:33 34.081650 -117.485104 18 7492ft 87kts
21-Nov-20 20:34 34.102003 -117.470427 8 8007ft 80kts
21-Nov-20 20:35 34.124526 -117.464869 3 8446ft 83kts
21-Nov-20 20:36 34.146731 -117.460625 13 8910ft 84kts
21-Nov-20 20:37 34.169160 -117.449373 16 9281ft 88kts
21-Nov-20 20:38 34.191184 -117.436917 17 9675ft 90kts
21-Nov-20 20:39 34.215836 -117.424583 14 9857ft 99kts
21-Nov-20 20:40 34.242520 -117.413505 11 9831ft 105kts
21-Nov-20 20:41 34.271977 -117.404034 10 9537ft 107kts
21-Nov-20 20:42 34.301046 -117.396489 12 9305ft 109kts
21-Nov-20 20:43 34.329870 -117.389736 5 9050ft 105kts
21-Nov-20 20:44 34.358218 -117.385453 1 8344ft 102kts
21-Nov-20 20:45 34.385883 -117.383372 0 7712ft 97kts
21-Nov-20 20:46 34.411783 -117.382791 0 6978ft 94kts
21-Nov-20 20:47 34.437004 -117.383071 358 6322ft 90kts
21-Nov-20 20:48 34.461730 -117.378772 4 5910ft 88kts
21-Nov-20 20:49 34.489324 -117.377282 358 5449ft 105kts
21-Nov-20 20:50 34.520991 -117.376595 359 4286ft 108kts
21-Nov-20 20:51 34.549428 -117.376317 358 3942ft 104kts
21-Nov-20 20:52 34.576574 -117.376775 357 3845ft 95kts
21-Nov-20 20:53 34.601907 -117.375618 3 3793ft 89kts
21-Nov-20 20:54 34.626623 -117.375512 352 3646ft 82kts
21-Nov-20 20:55 34.628491 -117.387626 167 3061ft 86kts
21-Nov-20 20:56 34.612050 -117.386632 179 2827ft 35kts
21-Nov-20 20:57 34.609685 -117.384158 179 2834ft 11kts
21-Nov-20 20:58 34.604771 -117.384094 178 2842ft 22kts
21-Nov-20 20:59 34.596382 -117.384055 180 2855ft 30kts
21-Nov-20 21:00 34.592403 -117.380959 134 2866ft 19kts
21-Nov-20 21:01 34.588687 -117.376774 161 2874ft 9kts
21-Nov-20 21:02 34.588030 -117.376057 306 2876ft 0kts
21-Nov-20 21:03 34.588030 -117.376057 306 2876ft 0kts
21-Nov-20 21:04 34.588030 -117.376057 306 2876ft 0kts
21-Nov-20 21:05 34.588030 -117.376057 306 2876ft 0kts
21-Nov-20 21:06 34.588030 -117.376057 306 2876ft 0kts
21-Nov-20 21:07 34.588269 -117.375696 192 2875ft 14kts
21-Nov-20 21:08 34.588261 -117.375852 305 2875ft 0kts

Navigation Log

Ident Type
Flight plan parsing failed, navigation log unavailable